createdAt,value
2023-02-02T00:01:13.056Z,27.20
2023-02-02T00:06:10.708Z,27.60
2023-02-02T00:11:08.026Z,26.67
2023-02-02T00:16:27.523Z,27.25
2023-02-02T00:21:35.614Z,22.02
2023-02-02T00:26:33.463Z,25.27
2023-02-02T00:31:30.941Z,25.75
2023-02-02T00:36:28.516Z,30.70
2023-02-02T00:41:26.339Z,21.92
2023-02-02T00:46:23.528Z,18.33
2023-02-02T00:51:20.816Z,17.73
2023-02-02T00:56:18.204Z,23.88
2023-02-02T01:01:22.417Z,18.45
2023-02-02T01:06:19.658Z,23.15
2023-02-02T01:11:17.530Z,27.75
2023-02-02T01:16:16.121Z,22.83
2023-02-02T01:21:13.567Z,23.15
2023-02-02T01:26:12.437Z,27.40
2023-02-02T01:31:15.853Z,22.07
2023-02-02T01:36:21.997Z,13.82
2023-02-02T01:41:27.874Z,15.52
2023-02-02T01:46:35.719Z,15.95
2023-02-02T01:51:42.061Z,19.60
2023-02-02T01:56:45.028Z,14.57
2023-02-02T02:01:44.047Z,15.95
2023-02-02T02:06:42.719Z,17.65
2023-02-02T02:11:40.551Z,20.48
2023-02-02T02:16:51.874Z,19.17
2023-02-02T02:22:30.041Z,19.70
2023-02-02T02:28:02.747Z,21.17
2023-02-02T02:33:17.344Z,18.52
2023-02-02T02:38:42.050Z,15.93
2023-02-02T02:43:50.648Z,16.10
2023-02-02T02:48:48.144Z,15.20
2023-02-02T02:53:45.562Z,17.08
2023-02-02T02:59:03.158Z,10.80
2023-02-02T03:04:22.243Z,19.35
2023-02-02T03:09:25.627Z,21.45
2023-02-02T03:14:23.025Z,27.02
2023-02-02T03:19:30.245Z,23.05
2023-02-02T03:24:27.701Z,20.83
2023-02-02T03:29:25.473Z,15.65
2023-02-02T03:34:32.408Z,21.58
2023-02-02T03:39:29.855Z,23.20
2023-02-02T03:44:27.152Z,12.45
2023-02-02T03:49:24.332Z,13.50
2023-02-02T03:54:24.489Z,11.68
2023-02-02T03:59:21.704Z,17.20
2023-02-02T04:04:19.019Z,14.57
2023-02-02T04:09:16.346Z,10.50
2023-02-02T04:14:13.691Z,20.40
2023-02-02T04:19:12.966Z,11.88
2023-02-02T04:24:14.511Z,15.13
2023-02-02T04:29:11.872Z,11.63
2023-02-02T04:34:09.348Z,9.75
2023-02-02T04:39:07.552Z,11.20
2023-02-02T04:44:06.958Z,15.20
2023-02-02T04:49:04.293Z,13.35
2023-02-02T04:54:01.850Z,8.90
2023-02-02T04:59:00.757Z,8.63
2023-02-02T05:04:04.777Z,7.90
2023-02-02T05:09:03.289Z,14.07
2023-02-02T05:14:00.992Z,10.77
2023-02-02T05:18:59.702Z,10.90
2023-02-02T05:23:59.884Z,6.30
2023-02-02T05:28:57.605Z,6.70
2023-02-02T05:33:54.933Z,7.18
2023-02-02T05:38:52.182Z,10.13
2023-02-02T05:43:52.587Z,9.70
2023-02-02T05:48:49.906Z,14.32
2023-02-02T05:53:47.868Z,15.70
2023-02-02T05:58:47.544Z,15.85
2023-02-02T06:03:44.816Z,10.80
2023-02-02T06:08:42.379Z,12.38
2023-02-02T06:13:39.689Z,13.93
2023-02-02T06:18:37.763Z,10.18
2023-02-02T06:23:35.584Z,24.35
2023-02-02T06:28:32.741Z,19.38
2023-02-02T06:33:30.352Z,30.13
2023-02-02T06:38:28.001Z,17.45
2023-02-02T06:43:25.280Z,24.08
2023-02-02T06:48:22.707Z,36.90
2023-02-02T06:53:23.415Z,79.35
2023-02-02T06:58:20.743Z,75.00
2023-02-02T07:03:18.799Z,219.32
2023-02-02T07:08:16.709Z,87.15
2023-02-02T07:13:13.959Z,53.35
2023-02-02T07:18:11.225Z,21.40
2023-02-02T07:23:08.497Z,14.05
2023-02-02T07:28:05.818Z,17.42
2023-02-02T07:33:03.146Z,16.10
2023-02-02T07:38:00.822Z,14.55
2023-02-02T07:43:00.705Z,12.80
2023-02-02T07:47:59.189Z,13.65
2023-02-02T07:52:58.572Z,17.95
2023-02-02T07:57:59.171Z,20.08
2023-02-02T08:02:56.775Z,36.70
2023-02-02T08:07:54.185Z,29.63
2023-02-02T08:12:51.646Z,17.35
2023-02-02T08:17:50.276Z,17.95
2023-02-02T08:22:47.848Z,19.67
2023-02-02T08:27:45.138Z,17.05
2023-02-02T08:32:42.407Z,20.10
2023-02-02T08:37:42.759Z,18.98
2023-02-02T08:42:40.203Z,12.90
2023-02-02T08:47:37.896Z,11.23
2023-02-02T08:52:35.319Z,12.43
2023-02-02T08:57:32.908Z,14.18
2023-02-02T09:02:30.280Z,6.95
2023-02-02T09:07:27.647Z,6.75
2023-02-02T09:12:25.688Z,8.40
2023-02-02T09:17:24.293Z,8.18
2023-02-02T09:22:22.145Z,8.88
2023-02-02T09:27:23.374Z,8.10
2023-02-02T09:32:21.000Z,5.30
2023-02-02T09:37:18.228Z,6.25
2023-02-02T09:42:35.015Z,7.07
2023-02-02T09:47:52.434Z,4.30
2023-02-02T09:53:07.921Z,0.93
2023-02-02T09:58:11.399Z,0.50
2023-02-02T10:03:37.790Z,3.67
2023-02-02T10:08:49.198Z,1.63
2023-02-02T10:13:48.825Z,5.95
2023-02-02T10:18:49.817Z,0.57
2023-02-02T10:23:47.100Z,3.17
2023-02-02T10:28:50.218Z,2.17
2023-02-02T10:34:02.507Z,1.92
2023-02-02T10:39:33.767Z,8.65
2023-02-02T10:44:39.832Z,1.80
2023-02-02T10:49:41.403Z,2.05
2023-02-02T10:54:58.733Z,2.30
2023-02-02T11:00:06.186Z,1.67
2023-02-02T11:05:22.031Z,1.95
2023-02-02T11:10:19.258Z,5.35
2023-02-02T11:15:29.173Z,1.77
2023-02-02T11:20:39.676Z,0.97
2023-02-02T11:30:38.296Z,2.63
2023-02-02T11:40:39.448Z,1.00
2023-02-02T11:45:40.086Z,1.02
2023-02-02T11:50:37.981Z,0.55
2023-02-02T11:55:35.719Z,2.17
2023-02-02T12:00:32.979Z,2.67
2023-02-02T12:05:36.137Z,0.73
2023-02-02T12:10:46.290Z,0.80
2023-02-02T12:16:03.637Z,2.10
2023-02-02T12:21:08.257Z,1.63
2023-02-02T12:26:32.490Z,2.85
2023-02-02T12:31:46.045Z,0.50
2023-02-02T12:37:09.415Z,5.93
2023-02-02T12:42:15.961Z,7.25
2023-02-02T12:47:31.771Z,0.45
2023-02-02T12:53:17.256Z,0.60
2023-02-02T12:58:53.545Z,1.20
2023-02-02T13:04:02.792Z,0.40
2023-02-02T13:09:14.278Z,0.60
2023-02-02T13:14:11.575Z,0.68
2023-02-02T13:19:15.203Z,0.77
2023-02-02T13:24:27.803Z,0.60
2023-02-02T13:29:55.949Z,1.58
2023-02-02T13:35:13.611Z,2.20
2023-02-02T13:40:21.181Z,0.50
2023-02-02T13:45:44.447Z,2.08
2023-02-02T13:51:11.649Z,7.40
2023-02-02T13:56:25.781Z,0.40
2023-02-02T14:01:25.388Z,1.00
2023-02-02T14:06:25.783Z,0.70
2023-02-02T14:11:35.973Z,1.52
2023-02-02T14:16:33.145Z,1.00
2023-02-02T14:21:42.426Z,0.80
2023-02-02T14:26:41.278Z,5.53
2023-02-02T14:31:53.030Z,4.38
2023-02-02T14:37:17.308Z,1.35
2023-02-02T14:43:02.136Z,0.57
2023-02-02T14:48:22.734Z,1.45
2023-02-02T14:53:25.789Z,0.82
2023-02-02T14:58:53.555Z,6.97
2023-02-02T15:03:55.253Z,0.52
2023-02-02T15:09:20.522Z,13.10
2023-02-02T15:14:20.256Z,3.90
2023-02-02T15:19:27.563Z,10.82
2023-02-02T15:24:28.539Z,2.42
2023-02-02T15:29:44.530Z,2.42
2023-02-02T15:34:47.118Z,4.65
2023-02-02T15:39:58.340Z,4.95
2023-02-02T15:44:55.627Z,4.45
2023-02-02T15:49:53.392Z,1.48
2023-02-02T15:54:58.994Z,2.13
2023-02-02T15:59:57.221Z,2.30
2023-02-02T16:04:54.775Z,6.47
2023-02-02T16:09:52.063Z,11.00
2023-02-02T16:14:54.419Z,7.63
2023-02-02T16:20:03.257Z,7.95
2023-02-02T16:25:06.308Z,4.95
2023-02-02T16:30:14.739Z,4.53
2023-02-02T16:35:44.763Z,3.90
2023-02-02T16:40:42.672Z,2.85
2023-02-02T16:45:45.979Z,3.33
2023-02-02T16:50:43.736Z,15.63
2023-02-02T16:55:51.274Z,8.85
2023-02-02T17:01:16.866Z,9.85
2023-02-02T17:06:14.525Z,11.43
2023-02-02T17:11:27.130Z,11.55
2023-02-02T17:16:25.089Z,9.68
2023-02-02T17:21:25.472Z,12.23
2023-02-02T17:26:23.023Z,6.88
2023-02-02T17:31:20.414Z,4.43
2023-02-02T17:36:17.916Z,7.43
2023-02-02T17:41:15.264Z,6.00
2023-02-02T17:46:15.575Z,5.45
2023-02-02T17:51:17.720Z,10.13
2023-02-02T17:56:15.076Z,10.50
2023-02-02T18:01:13.891Z,19.30
2023-02-02T18:06:11.834Z,9.02
2023-02-02T18:11:12.652Z,16.40
2023-02-02T18:16:11.168Z,13.98
2023-02-02T18:21:12.208Z,10.85
2023-02-02T18:26:18.815Z,16.80
2023-02-02T18:31:19.622Z,11.70
2023-02-02T18:36:20.138Z,10.52
2023-02-02T18:41:18.910Z,9.18
2023-02-02T18:46:17.429Z,4.53
2023-02-02T18:51:18.331Z,3.70
2023-02-02T18:56:17.483Z,4.43
2023-02-02T19:01:17.105Z,6.35
2023-02-02T19:06:33.380Z,1.98
2023-02-02T19:11:44.018Z,3.60
2023-02-02T19:16:42.024Z,4.70
2023-02-02T19:21:41.483Z,2.50
2023-02-02T19:26:45.648Z,9.27
2023-02-02T19:31:43.501Z,6.70
2023-02-02T19:36:46.461Z,4.72
2023-02-02T19:41:44.450Z,5.38
2023-02-02T19:46:48.352Z,7.82
2023-02-02T19:51:52.693Z,8.35
2023-02-02T19:56:52.202Z,7.55
2023-02-02T20:01:50.919Z,7.60
2023-02-02T20:06:58.484Z,15.65
2023-02-02T20:11:56.759Z,10.65
2023-02-02T20:16:59.741Z,16.98
2023-02-02T20:21:57.545Z,13.13
2023-02-02T20:26:59.214Z,25.50
2023-02-02T20:31:59.346Z,26.08
2023-02-02T20:37:05.823Z,44.65
2023-02-02T20:42:03.924Z,29.30
2023-02-02T20:47:01.954Z,21.48
2023-02-02T20:52:02.437Z,17.13
2023-02-02T20:57:00.080Z,17.08
2023-02-02T21:01:58.809Z,12.90
2023-02-02T21:06:56.653Z,11.10
2023-02-02T21:11:53.877Z,7.38
2023-02-02T21:16:55.346Z,10.40
2023-02-02T21:21:57.207Z,10.95
2023-02-02T21:26:54.457Z,9.43
2023-02-02T21:31:56.703Z,9.88
2023-02-02T21:36:57.412Z,9.13
2023-02-02T21:42:09.245Z,6.72
2023-02-02T21:47:37.747Z,13.15
2023-02-02T21:52:39.821Z,7.93
2023-02-02T21:57:37.707Z,7.80
2023-02-02T22:02:45.106Z,13.48
2023-02-02T22:07:46.463Z,13.88
2023-02-02T22:12:43.778Z,17.65
2023-02-02T22:17:42.136Z,11.43
2023-02-02T22:22:46.458Z,12.48
2023-02-02T22:27:51.792Z,10.55
2023-02-02T22:32:49.494Z,20.55
2023-02-02T22:37:47.063Z,13.77
2023-02-02T22:42:44.485Z,13.32
2023-02-02T22:47:41.795Z,12.27
2023-02-02T22:52:38.992Z,10.98
2023-02-02T22:57:36.857Z,13.00
2023-02-02T23:02:34.998Z,10.45
2023-02-02T23:07:32.888Z,11.35
2023-02-02T23:12:30.153Z,8.75
2023-02-02T23:17:27.394Z,7.95
2023-02-02T23:22:24.637Z,8.77
2023-02-02T23:27:22.133Z,10.52
2023-02-02T23:32:19.666Z,8.93
2023-02-02T23:37:16.899Z,10.65
2023-02-02T23:42:14.210Z,9.48
2023-02-02T23:47:11.531Z,9.18
2023-02-02T23:52:08.937Z,7.18
2023-02-02T23:57:06.426Z,9.68
